sensor_id;sensor_type;location;lat;lon;timestamp;P1;durP1;ratioP1;P2;durP2;ratioP2
52041;SDS011;38052;45.944;13.624;2022-12-29T00:01:04;34.80;;;22.92;;
52041;SDS011;38052;45.944;13.624;2022-12-29T00:03:30;35.72;;;23.30;;
52041;SDS011;38052;45.944;13.624;2022-12-29T00:05:57;42.85;;;24.75;;
52041;SDS011;38052;45.944;13.624;2022-12-29T00:08:23;34.95;;;24.02;;
52041;SDS011;38052;45.944;13.624;2022-12-29T00:11:05;42.50;;;26.43;;
52041;SDS011;38052;45.944;13.624;2022-12-29T00:13:32;39.90;;;26.70;;
52041;SDS011;38052;45.944;13.624;2022-12-29T00:16:16;41.97;;;28.40;;
52041;SDS011;38052;45.944;13.624;2022-12-29T00:18:43;45.53;;;31.70;;
52041;SDS011;38052;45.944;13.624;2022-12-29T00:21:12;41.35;;;28.98;;
52041;SDS011;38052;45.944;13.624;2022-12-29T00:23:57;43.67;;;29.20;;
52041;SDS011;38052;45.944;13.624;2022-12-29T00:26:41;46.33;;;30.17;;
52041;SDS011;38052;45.944;13.624;2022-12-29T00:29:26;40.40;;;28.63;;
52041;SDS011;38052;45.944;13.624;2022-12-29T00:32:11;42.42;;;28.52;;
52041;SDS011;38052;45.944;13.624;2022-12-29T00:34:56;41.63;;;26.27;;
52041;SDS011;38052;45.944;13.624;2022-12-29T00:37:37;43.55;;;27.38;;
52041;SDS011;38052;45.944;13.624;2022-12-29T00:40:23;42.60;;;28.70;;
52041;SDS011;38052;45.944;13.624;2022-12-29T00:43:07;41.17;;;26.98;;
52041;SDS011;38052;45.944;13.624;2022-12-29T00:45:52;41.35;;;28.10;;
52041;SDS011;38052;45.944;13.624;2022-12-29T00:48:19;45.30;;;28.15;;
52041;SDS011;38052;45.944;13.624;2022-12-29T00:51:05;40.53;;;25.80;;
52041;SDS011;38052;45.944;13.624;2022-12-29T00:53:32;42.55;;;26.38;;
52041;SDS011;38052;45.944;13.624;2022-12-29T00:55:58;44.50;;;25.15;;
52041;SDS011;38052;45.944;13.624;2022-12-29T00:58:26;41.13;;;27.23;;
52041;SDS011;38052;45.944;13.624;2022-12-29T01:00:59;42.72;;;26.27;;
52041;SDS011;38052;45.944;13.624;2022-12-29T01:03:26;37.55;;;24.23;;
52041;SDS011;38052;45.944;13.624;2022-12-29T01:05:53;41.83;;;24.60;;
52041;SDS011;38052;45.944;13.624;2022-12-29T01:08:19;36.38;;;24.25;;
52041;SDS011;38052;45.944;13.624;2022-12-29T01:10:46;38.88;;;25.38;;
52041;SDS011;38052;45.944;13.624;2022-12-29T01:13:12;39.63;;;24.92;;
52041;SDS011;38052;45.944;13.624;2022-12-29T01:15:38;36.58;;;24.23;;
52041;SDS011;38052;45.944;13.624;2022-12-29T01:18:05;38.83;;;24.58;;
52041;SDS011;38052;45.944;13.624;2022-12-29T01:20:32;37.22;;;24.35;;
52041;SDS011;38052;45.944;13.624;2022-12-29T01:22:59;38.20;;;23.70;;
52041;SDS011;38052;45.944;13.624;2022-12-29T01:25:25;35.63;;;25.08;;
52041;SDS011;38052;45.944;13.624;2022-12-29T01:27:51;40.47;;;24.80;;
52041;SDS011;38052;45.944;13.624;2022-12-29T01:30:18;36.38;;;24.88;;
52041;SDS011;38052;45.944;13.624;2022-12-29T01:32:44;36.03;;;23.80;;
52041;SDS011;38052;45.944;13.624;2022-12-29T01:35:11;39.65;;;24.10;;
52041;SDS011;38052;45.944;13.624;2022-12-29T01:37:38;39.90;;;23.95;;
52041;SDS011;38052;45.944;13.624;2022-12-29T01:40:05;33.75;;;24.33;;
52041;SDS011;38052;45.944;13.624;2022-12-29T01:42:31;37.80;;;23.48;;
52041;SDS011;38052;45.944;13.624;2022-12-29T01:45:14;41.70;;;26.05;;
52041;SDS011;38052;45.944;13.624;2022-12-29T01:47:50;39.42;;;24.92;;
52041;SDS011;38052;45.944;13.624;2022-12-29T01:50:31;40.10;;;25.05;;
52041;SDS011;38052;45.944;13.624;2022-12-29T01:53:02;38.60;;;25.73;;
52041;SDS011;38052;45.944;13.624;2022-12-29T01:55:30;40.88;;;24.25;;
52041;SDS011;38052;45.944;13.624;2022-12-29T01:57:59;36.33;;;23.08;;
52041;SDS011;38052;45.944;13.624;2022-12-29T02:00:27;36.40;;;24.15;;
52041;SDS011;38052;45.944;13.624;2022-12-29T02:02:53;38.70;;;23.92;;
52041;SDS011;38052;45.944;13.624;2022-12-29T02:05:23;37.20;;;24.95;;
52041;SDS011;38052;45.944;13.624;2022-12-29T02:07:50;39.78;;;25.67;;
52041;SDS011;38052;45.944;13.624;2022-12-29T02:10:19;35.92;;;23.88;;
52041;SDS011;38052;45.944;13.624;2022-12-29T02:12:46;43.65;;;28.58;;
52041;SDS011;38052;45.944;13.624;2022-12-29T02:15:12;41.22;;;25.80;;
52041;SDS011;38052;45.944;13.624;2022-12-29T02:20:47;40.60;;;26.40;;
52041;SDS011;38052;45.944;13.624;2022-12-29T02:23:59;49.95;;;29.33;;
52041;SDS011;38052;45.944;13.624;2022-12-29T02:26:19;45.00;;;27.25;;
52041;SDS011;38052;45.944;13.624;2022-12-29T02:38:59;45.10;;;28.27;;
52041;SDS011;38052;45.944;13.624;2022-12-29T02:41:32;48.13;;;28.77;;
52041;SDS011;38052;45.944;13.624;2022-12-29T02:44:03;49.97;;;28.97;;
52041;SDS011;38052;45.944;13.624;2022-12-29T02:51:35;33.17;;;23.70;;
52041;SDS011;38052;45.944;13.624;2022-12-29T02:54:04;36.53;;;24.67;;
52041;SDS011;38052;45.944;13.624;2022-12-29T02:56:49;35.58;;;24.38;;
52041;SDS011;38052;45.944;13.624;2022-12-29T02:59:15;36.03;;;23.30;;
52041;SDS011;38052;45.944;13.624;2022-12-29T03:01:46;39.20;;;25.52;;
52041;SDS011;38052;45.944;13.624;2022-12-29T03:04:49;38.83;;;25.42;;
52041;SDS011;38052;45.944;13.624;2022-12-29T03:09:44;39.80;;;26.52;;
52041;SDS011;38052;45.944;13.624;2022-12-29T03:12:23;38.90;;;24.33;;
52041;SDS011;38052;45.944;13.624;2022-12-29T03:15:10;35.53;;;23.73;;
52041;SDS011;38052;45.944;13.624;2022-12-29T03:18:10;42.03;;;25.10;;
52041;SDS011;38052;45.944;13.624;2022-12-29T03:20:42;41.08;;;24.67;;
52041;SDS011;38052;45.944;13.624;2022-12-29T03:23:10;39.42;;;26.27;;
52041;SDS011;38052;45.944;13.624;2022-12-29T03:25:39;43.55;;;25.52;;
52041;SDS011;38052;45.944;13.624;2022-12-29T03:28:08;42.53;;;26.90;;
52041;SDS011;38052;45.944;13.624;2022-12-29T03:30:35;38.25;;;25.48;;
52041;SDS011;38052;45.944;13.624;2022-12-29T03:33:02;41.85;;;27.13;;
52041;SDS011;38052;45.944;13.624;2022-12-29T03:35:31;39.35;;;24.80;;
52041;SDS011;38052;45.944;13.624;2022-12-29T03:40:26;44.15;;;26.35;;
52041;SDS011;38052;45.944;13.624;2022-12-29T03:42:53;51.97;;;29.15;;
52041;SDS011;38052;45.944;13.624;2022-12-29T03:45:19;39.65;;;27.70;;
52041;SDS011;38052;45.944;13.624;2022-12-29T03:47:46;39.60;;;24.42;;
52041;SDS011;38052;45.944;13.624;2022-12-29T03:50:13;37.85;;;25.85;;
52041;SDS011;38052;45.944;13.624;2022-12-29T03:52:40;41.90;;;26.40;;
52041;SDS011;38052;45.944;13.624;2022-12-29T03:55:07;37.25;;;25.15;;
52041;SDS011;38052;45.944;13.624;2022-12-29T03:57:34;35.55;;;24.52;;
52041;SDS011;38052;45.944;13.624;2022-12-29T04:00:02;34.97;;;24.35;;
52041;SDS011;38052;45.944;13.624;2022-12-29T04:02:28;37.85;;;24.30;;
52041;SDS011;38052;45.944;13.624;2022-12-29T04:04:54;41.63;;;25.40;;
52041;SDS011;38052;45.944;13.624;2022-12-29T04:07:21;36.78;;;25.33;;
52041;SDS011;38052;45.944;13.624;2022-12-29T04:09:47;41.53;;;27.63;;
52041;SDS011;38052;45.944;13.624;2022-12-29T04:12:14;42.35;;;27.02;;
52041;SDS011;38052;45.944;13.624;2022-12-29T04:14:41;39.97;;;25.80;;
52041;SDS011;38052;45.944;13.624;2022-12-29T04:17:07;40.03;;;25.10;;
52041;SDS011;38052;45.944;13.624;2022-12-29T04:19:34;37.33;;;24.15;;
52041;SDS011;38052;45.944;13.624;2022-12-29T04:22:00;40.25;;;25.23;;
52041;SDS011;38052;45.944;13.624;2022-12-29T04:24:27;36.22;;;24.52;;
52041;SDS011;38052;45.944;13.624;2022-12-29T04:26:53;41.67;;;25.98;;
52041;SDS011;38052;45.944;13.624;2022-12-29T04:29:20;42.15;;;27.95;;
52041;SDS011;38052;45.944;13.624;2022-12-29T04:31:46;35.53;;;26.05;;
52041;SDS011;38052;45.944;13.624;2022-12-29T04:34:13;36.17;;;25.35;;
52041;SDS011;38052;45.944;13.624;2022-12-29T04:36:39;40.40;;;25.80;;
52041;SDS011;38052;45.944;13.624;2022-12-29T04:39:05;31.95;;;22.15;;
52041;SDS011;38052;45.944;13.624;2022-12-29T04:41:32;32.08;;;22.33;;
52041;SDS011;38052;45.944;13.624;2022-12-29T04:43:58;34.88;;;23.45;;
52041;SDS011;38052;45.944;13.624;2022-12-29T04:46:25;36.33;;;23.58;;
52041;SDS011;38052;45.944;13.624;2022-12-29T04:48:51;36.58;;;22.65;;
52041;SDS011;38052;45.944;13.624;2022-12-29T04:51:18;40.15;;;23.70;;
52041;SDS011;38052;45.944;13.624;2022-12-29T04:53:44;29.83;;;20.23;;
52041;SDS011;38052;45.944;13.624;2022-12-29T04:56:11;38.65;;;22.63;;
52041;SDS011;38052;45.944;13.624;2022-12-29T04:58:37;35.75;;;22.67;;
52041;SDS011;38052;45.944;13.624;2022-12-29T05:01:04;34.05;;;22.50;;
52041;SDS011;38052;45.944;13.624;2022-12-29T05:03:31;32.85;;;21.92;;
52041;SDS011;38052;45.944;13.624;2022-12-29T05:05:57;33.50;;;22.05;;
52041;SDS011;38052;45.944;13.624;2022-12-29T05:08:24;30.23;;;21.42;;
52041;SDS011;38052;45.944;13.624;2022-12-29T05:10:50;33.35;;;19.75;;
52041;SDS011;38052;45.944;13.624;2022-12-29T05:13:17;28.48;;;20.27;;
52041;SDS011;38052;45.944;13.624;2022-12-29T05:15:50;29.13;;;18.45;;
52041;SDS011;38052;45.944;13.624;2022-12-29T05:18:16;28.23;;;17.77;;
52041;SDS011;38052;45.944;13.624;2022-12-29T05:20:43;30.38;;;18.42;;
52041;SDS011;38052;45.944;13.624;2022-12-29T05:23:09;28.30;;;18.52;;
52041;SDS011;38052;45.944;13.624;2022-12-29T05:25:35;31.60;;;19.83;;
52041;SDS011;38052;45.944;13.624;2022-12-29T05:28:02;33.58;;;19.98;;
52041;SDS011;38052;45.944;13.624;2022-12-29T05:30:28;35.28;;;20.95;;
52041;SDS011;38052;45.944;13.624;2022-12-29T05:32:54;32.95;;;21.15;;
52041;SDS011;38052;45.944;13.624;2022-12-29T05:35:21;38.75;;;22.02;;
52041;SDS011;38052;45.944;13.624;2022-12-29T05:37:47;29.08;;;19.85;;
52041;SDS011;38052;45.944;13.624;2022-12-29T05:40:13;30.58;;;20.35;;
52041;SDS011;38052;45.944;13.624;2022-12-29T05:42:40;31.48;;;20.48;;
52041;SDS011;38052;45.944;13.624;2022-12-29T05:45:07;33.25;;;20.83;;
52041;SDS011;38052;45.944;13.624;2022-12-29T05:47:33;32.97;;;20.10;;
52041;SDS011;38052;45.944;13.624;2022-12-29T05:49:59;35.38;;;21.33;;
52041;SDS011;38052;45.944;13.624;2022-12-29T05:52:26;37.53;;;21.95;;
52041;SDS011;38052;45.944;13.624;2022-12-29T05:54:52;31.73;;;21.88;;
52041;SDS011;38052;45.944;13.624;2022-12-29T05:57:19;37.47;;;23.20;;
52041;SDS011;38052;45.944;13.624;2022-12-29T05:59:45;33.92;;;21.80;;
52041;SDS011;38052;45.944;13.624;2022-12-29T06:02:12;39.08;;;22.13;;
52041;SDS011;38052;45.944;13.624;2022-12-29T06:04:39;34.03;;;23.75;;
52041;SDS011;38052;45.944;13.624;2022-12-29T06:07:06;41.40;;;24.98;;
52041;SDS011;38052;45.944;13.624;2022-12-29T06:09:32;43.72;;;26.42;;
52041;SDS011;38052;45.944;13.624;2022-12-29T06:11:59;41.33;;;24.73;;
52041;SDS011;38052;45.944;13.624;2022-12-29T06:14:25;45.38;;;26.50;;
52041;SDS011;38052;45.944;13.624;2022-12-29T06:16:52;53.65;;;25.55;;
52041;SDS011;38052;45.944;13.624;2022-12-29T06:19:19;41.25;;;25.92;;
52041;SDS011;38052;45.944;13.624;2022-12-29T06:21:45;40.08;;;26.42;;
52041;SDS011;38052;45.944;13.624;2022-12-29T06:24:12;38.30;;;25.48;;
52041;SDS011;38052;45.944;13.624;2022-12-29T06:26:38;41.47;;;26.15;;
52041;SDS011;38052;45.944;13.624;2022-12-29T06:29:05;45.42;;;26.75;;
52041;SDS011;38052;45.944;13.624;2022-12-29T06:31:33;44.25;;;25.35;;
52041;SDS011;38052;45.944;13.624;2022-12-29T06:33:59;55.10;;;26.17;;
52041;SDS011;38052;45.944;13.624;2022-12-29T06:36:26;39.40;;;26.50;;
52041;SDS011;38052;45.944;13.624;2022-12-29T06:38:52;44.40;;;26.55;;
52041;SDS011;38052;45.944;13.624;2022-12-29T06:41:19;39.25;;;26.70;;
52041;SDS011;38052;45.944;13.624;2022-12-29T06:43:45;41.78;;;26.15;;
52041;SDS011;38052;45.944;13.624;2022-12-29T06:46:12;44.10;;;27.33;;
52041;SDS011;38052;45.944;13.624;2022-12-29T06:48:38;36.78;;;23.73;;
52041;SDS011;38052;45.944;13.624;2022-12-29T06:51:07;38.70;;;21.60;;
52041;SDS011;38052;45.944;13.624;2022-12-29T06:53:34;30.95;;;21.70;;
52041;SDS011;38052;45.944;13.624;2022-12-29T06:56:00;35.58;;;22.92;;
52041;SDS011;38052;45.944;13.624;2022-12-29T06:58:27;40.67;;;24.70;;
52041;SDS011;38052;45.944;13.624;2022-12-29T07:00:53;38.58;;;25.40;;
52041;SDS011;38052;45.944;13.624;2022-12-29T07:03:20;35.58;;;24.88;;
52041;SDS011;38052;45.944;13.624;2022-12-29T07:05:46;47.50;;;25.45;;
52041;SDS011;38052;45.944;13.624;2022-12-29T07:08:13;37.05;;;23.80;;
52041;SDS011;38052;45.944;13.624;2022-12-29T07:10:39;34.13;;;22.35;;
52041;SDS011;38052;45.944;13.624;2022-12-29T07:13:06;33.60;;;21.35;;
52041;SDS011;38052;45.944;13.624;2022-12-29T07:15:32;35.15;;;22.88;;
52041;SDS011;38052;45.944;13.624;2022-12-29T07:17:59;34.13;;;21.98;;
52041;SDS011;38052;45.944;13.624;2022-12-29T07:20:26;30.55;;;20.33;;
52041;SDS011;38052;45.944;13.624;2022-12-29T07:22:52;28.38;;;18.23;;
52041;SDS011;38052;45.944;13.624;2022-12-29T07:25:18;33.45;;;19.98;;
52041;SDS011;38052;45.944;13.624;2022-12-29T07:27:45;26.35;;;17.85;;
52041;SDS011;38052;45.944;13.624;2022-12-29T07:30:12;29.02;;;17.95;;
52041;SDS011;38052;45.944;13.624;2022-12-29T07:32:38;30.25;;;19.33;;
52041;SDS011;38052;45.944;13.624;2022-12-29T07:35:04;28.65;;;18.52;;
52041;SDS011;38052;45.944;13.624;2022-12-29T07:37:33;26.77;;;17.40;;
52041;SDS011;38052;45.944;13.624;2022-12-29T07:40:00;33.85;;;20.58;;
52041;SDS011;38052;45.944;13.624;2022-12-29T07:42:26;28.20;;;18.80;;
52041;SDS011;38052;45.944;13.624;2022-12-29T07:44:53;27.80;;;18.75;;
52041;SDS011;38052;45.944;13.624;2022-12-29T07:47:19;32.55;;;19.08;;
52041;SDS011;38052;45.944;13.624;2022-12-29T07:49:46;23.80;;;17.02;;
52041;SDS011;38052;45.944;13.624;2022-12-29T07:52:12;27.73;;;18.77;;
52041;SDS011;38052;45.944;13.624;2022-12-29T07:54:38;29.38;;;18.73;;
52041;SDS011;38052;45.944;13.624;2022-12-29T07:57:05;29.90;;;18.90;;
52041;SDS011;38052;45.944;13.624;2022-12-29T07:59:32;32.70;;;18.13;;
52041;SDS011;38052;45.944;13.624;2022-12-29T08:01:59;31.08;;;18.15;;
52041;SDS011;38052;45.944;13.624;2022-12-29T08:04:25;32.10;;;17.92;;
52041;SDS011;38052;45.944;13.624;2022-12-29T08:06:52;27.95;;;18.42;;
52041;SDS011;38052;45.944;13.624;2022-12-29T08:09:18;31.75;;;17.90;;
52041;SDS011;38052;45.944;13.624;2022-12-29T08:11:44;30.58;;;17.98;;
52041;SDS011;38052;45.944;13.624;2022-12-29T08:14:11;30.55;;;18.95;;
52041;SDS011;38052;45.944;13.624;2022-12-29T08:16:37;29.45;;;18.98;;
52041;SDS011;38052;45.944;13.624;2022-12-29T08:19:04;27.35;;;16.40;;
52041;SDS011;38052;45.944;13.624;2022-12-29T08:21:30;28.77;;;18.80;;
52041;SDS011;38052;45.944;13.624;2022-12-29T08:23:56;26.60;;;17.13;;
52041;SDS011;38052;45.944;13.624;2022-12-29T08:26:24;31.98;;;18.90;;
52041;SDS011;38052;45.944;13.624;2022-12-29T08:28:52;38.78;;;18.90;;
52041;SDS011;38052;45.944;13.624;2022-12-29T08:31:18;26.52;;;17.25;;
52041;SDS011;38052;45.944;13.624;2022-12-29T08:33:45;31.73;;;18.85;;
52041;SDS011;38052;45.944;13.624;2022-12-29T08:36:13;32.70;;;19.35;;
52041;SDS011;38052;45.944;13.624;2022-12-29T08:38:39;27.30;;;18.33;;
52041;SDS011;38052;45.944;13.624;2022-12-29T08:41:06;29.08;;;17.20;;
52041;SDS011;38052;45.944;13.624;2022-12-29T08:43:33;32.38;;;21.17;;
52041;SDS011;38052;45.944;13.624;2022-12-29T08:45:59;36.97;;;20.38;;
52041;SDS011;38052;45.944;13.624;2022-12-29T08:48:26;33.30;;;18.67;;
52041;SDS011;38052;45.944;13.624;2022-12-29T08:50:52;33.78;;;19.10;;
52041;SDS011;38052;45.944;13.624;2022-12-29T08:53:19;27.70;;;18.73;;
52041;SDS011;38052;45.944;13.624;2022-12-29T08:55:46;35.15;;;21.13;;
52041;SDS011;38052;45.944;13.624;2022-12-29T08:58:12;37.85;;;23.13;;
52041;SDS011;38052;45.944;13.624;2022-12-29T09:00:40;34.65;;;23.40;;
52041;SDS011;38052;45.944;13.624;2022-12-29T09:03:06;39.38;;;25.83;;
52041;SDS011;38052;45.944;13.624;2022-12-29T09:05:33;38.00;;;23.95;;
52041;SDS011;38052;45.944;13.624;2022-12-29T09:07:59;33.95;;;23.33;;
52041;SDS011;38052;45.944;13.624;2022-12-29T09:10:25;34.58;;;23.85;;
52041;SDS011;38052;45.944;13.624;2022-12-29T09:12:52;35.97;;;22.80;;
52041;SDS011;38052;45.944;13.624;2022-12-29T09:15:18;39.35;;;23.52;;
52041;SDS011;38052;45.944;13.624;2022-12-29T09:17:45;31.38;;;23.25;;
52041;SDS011;38052;45.944;13.624;2022-12-29T09:20:15;39.55;;;23.50;;
52041;SDS011;38052;45.944;13.624;2022-12-29T09:22:42;35.88;;;21.15;;
52041;SDS011;38052;45.944;13.624;2022-12-29T09:25:08;37.45;;;21.80;;
52041;SDS011;38052;45.944;13.624;2022-12-29T09:27:35;30.42;;;20.75;;
52041;SDS011;38052;45.944;13.624;2022-12-29T09:30:02;34.60;;;22.10;;
52041;SDS011;38052;45.944;13.624;2022-12-29T09:32:29;31.33;;;20.95;;
52041;SDS011;38052;45.944;13.624;2022-12-29T09:34:55;32.60;;;22.10;;
52041;SDS011;38052;45.944;13.624;2022-12-29T09:37:22;38.08;;;23.23;;
52041;SDS011;38052;45.944;13.624;2022-12-29T09:39:48;33.38;;;22.83;;
52041;SDS011;38052;45.944;13.624;2022-12-29T09:47:14;36.55;;;22.70;;
52041;SDS011;38052;45.944;13.624;2022-12-29T09:49:49;35.42;;;23.25;;
52041;SDS011;38052;45.944;13.624;2022-12-29T09:52:19;44.95;;;27.50;;
52041;SDS011;38052;45.944;13.624;2022-12-29T09:57:24;38.88;;;23.83;;
52041;SDS011;38052;45.944;13.624;2022-12-29T09:59:52;34.78;;;25.35;;
52041;SDS011;38052;45.944;13.624;2022-12-29T10:04:55;40.33;;;26.55;;
52041;SDS011;38052;45.944;13.624;2022-12-29T10:15:40;38.40;;;23.88;;
52041;SDS011;38052;45.944;13.624;2022-12-29T10:20:55;44.38;;;26.88;;
52041;SDS011;38052;45.944;13.624;2022-12-29T10:23:31;39.75;;;24.85;;
52041;SDS011;38052;45.944;13.624;2022-12-29T10:26:00;44.13;;;27.98;;
52041;SDS011;38052;45.944;13.624;2022-12-29T10:28:41;34.90;;;25.02;;
52041;SDS011;38052;45.944;13.624;2022-12-29T10:31:14;40.53;;;24.75;;
52041;SDS011;38052;45.944;13.624;2022-12-29T10:33:44;42.05;;;27.33;;
52041;SDS011;38052;45.944;13.624;2022-12-29T10:36:13;39.65;;;26.40;;
52041;SDS011;38052;45.944;13.624;2022-12-29T10:41:28;38.28;;;24.80;;
52041;SDS011;38052;45.944;13.624;2022-12-29T10:44:13;38.20;;;26.17;;
52041;SDS011;38052;45.944;13.624;2022-12-29T10:46:40;35.75;;;24.35;;
52041;SDS011;38052;45.944;13.624;2022-12-29T10:49:11;36.25;;;25.58;;
52041;SDS011;38052;45.944;13.624;2022-12-29T10:51:41;42.38;;;26.90;;
52041;SDS011;38052;45.944;13.624;2022-12-29T10:54:32;40.20;;;25.67;;
52041;SDS011;38052;45.944;13.624;2022-12-29T10:57:00;36.38;;;26.17;;
52041;SDS011;38052;45.944;13.624;2022-12-29T10:59:31;49.67;;;26.42;;
52041;SDS011;38052;45.944;13.624;2022-12-29T11:07:23;39.30;;;27.10;;
52041;SDS011;38052;45.944;13.624;2022-12-29T11:09:51;39.90;;;27.10;;
52041;SDS011;38052;45.944;13.624;2022-12-29T11:12:30;46.28;;;26.13;;
52041;SDS011;38052;45.944;13.624;2022-12-29T11:15:11;42.00;;;28.27;;
52041;SDS011;38052;45.944;13.624;2022-12-29T11:22:49;33.53;;;21.67;;
52041;SDS011;38052;45.944;13.624;2022-12-29T11:25:16;37.85;;;23.42;;
52041;SDS011;38052;45.944;13.624;2022-12-29T11:27:45;40.17;;;23.85;;
52041;SDS011;38052;45.944;13.624;2022-12-29T11:30:25;35.97;;;24.85;;
52041;SDS011;38052;45.944;13.624;2022-12-29T11:32:52;35.83;;;24.73;;
52041;SDS011;38052;45.944;13.624;2022-12-29T11:35:29;38.17;;;24.35;;
52041;SDS011;38052;45.944;13.624;2022-12-29T11:37:56;39.25;;;25.20;;
52041;SDS011;38052;45.944;13.624;2022-12-29T11:40:24;34.38;;;25.15;;
52041;SDS011;38052;45.944;13.624;2022-12-29T11:42:51;43.33;;;24.88;;
52041;SDS011;38052;45.944;13.624;2022-12-29T11:45:19;46.60;;;26.65;;
52041;SDS011;38052;45.944;13.624;2022-12-29T11:47:47;40.38;;;23.73;;
52041;SDS011;38052;45.944;13.624;2022-12-29T11:50:21;38.80;;;26.85;;
52041;SDS011;38052;45.944;13.624;2022-12-29T11:52:48;34.85;;;25.90;;
52041;SDS011;38052;45.944;13.624;2022-12-29T11:55:17;35.67;;;25.38;;
52041;SDS011;38052;45.944;13.624;2022-12-29T11:57:44;48.58;;;31.88;;
52041;SDS011;38052;45.944;13.624;2022-12-29T12:00:18;41.75;;;27.35;;
52041;SDS011;38052;45.944;13.624;2022-12-29T12:02:47;47.22;;;27.27;;
52041;SDS011;38052;45.944;13.624;2022-12-29T12:05:22;40.58;;;26.45;;
52041;SDS011;38052;45.944;13.624;2022-12-29T12:07:54;42.70;;;28.13;;
52041;SDS011;38052;45.944;13.624;2022-12-29T12:10:27;36.80;;;25.80;;
52041;SDS011;38052;45.944;13.624;2022-12-29T12:13:10;41.47;;;27.15;;
52041;SDS011;38052;45.944;13.624;2022-12-29T12:15:40;41.88;;;27.42;;
52041;SDS011;38052;45.944;13.624;2022-12-29T12:18:10;44.85;;;31.92;;
52041;SDS011;38052;45.944;13.624;2022-12-29T12:20:52;54.03;;;34.03;;
52041;SDS011;38052;45.944;13.624;2022-12-29T12:26:12;45.40;;;30.35;;
52041;SDS011;38052;45.944;13.624;2022-12-29T12:31:08;43.20;;;30.05;;
52041;SDS011;38052;45.944;13.624;2022-12-29T12:33:38;42.22;;;27.77;;
52041;SDS011;38052;45.944;13.624;2022-12-29T12:41:37;45.55;;;29.27;;
52041;SDS011;38052;45.944;13.624;2022-12-29T12:59:30;32.88;;;24.27;;
52041;SDS011;38052;45.944;13.624;2022-12-29T13:04:42;37.65;;;26.13;;
52041;SDS011;38052;45.944;13.624;2022-12-29T13:12:28;41.88;;;27.00;;
52041;SDS011;38052;45.944;13.624;2022-12-29T13:19:53;38.35;;;25.98;;
52041;SDS011;38052;45.944;13.624;2022-12-29T13:37:29;41.92;;;26.67;;
52041;SDS011;38052;45.944;13.624;2022-12-29T13:39:59;39.25;;;25.02;;
52041;SDS011;38052;45.944;13.624;2022-12-29T13:42:27;39.22;;;25.85;;
52041;SDS011;38052;45.944;13.624;2022-12-29T13:45:04;38.95;;;25.17;;
52041;SDS011;38052;45.944;13.624;2022-12-29T13:50:02;42.38;;;25.45;;
52041;SDS011;38052;45.944;13.624;2022-12-29T13:58:27;39.47;;;25.77;;
52041;SDS011;38052;45.944;13.624;2022-12-29T14:00:38;38.92;;;26.15;;
52041;SDS011;38052;45.944;13.624;2022-12-29T14:05:35;34.67;;;25.80;;
52041;SDS011;38052;45.944;13.624;2022-12-29T14:08:02;37.45;;;25.17;;
52041;SDS011;38052;45.944;13.624;2022-12-29T14:13:04;44.50;;;28.65;;
52041;SDS011;38052;45.944;13.624;2022-12-29T14:15:31;40.45;;;26.10;;
52041;SDS011;38052;45.944;13.624;2022-12-29T14:18:32;40.00;;;25.95;;
52041;SDS011;38052;45.944;13.624;2022-12-29T14:23:39;38.60;;;25.38;;
52041;SDS011;38052;45.944;13.624;2022-12-29T14:31:00;34.60;;;25.15;;
52041;SDS011;38052;45.944;13.624;2022-12-29T14:33:28;35.88;;;25.17;;
52041;SDS011;38052;45.944;13.624;2022-12-29T14:35:54;37.60;;;26.58;;
52041;SDS011;38052;45.944;13.624;2022-12-29T14:38:27;37.55;;;24.73;;
52041;SDS011;38052;45.944;13.624;2022-12-29T14:41:15;37.30;;;24.42;;
52041;SDS011;38052;45.944;13.624;2022-12-29T14:43:39;44.03;;;28.65;;
52041;SDS011;38052;45.944;13.624;2022-12-29T14:46:06;36.22;;;25.02;;
52041;SDS011;38052;45.944;13.624;2022-12-29T14:48:38;37.80;;;26.15;;
52041;SDS011;38052;45.944;13.624;2022-12-29T14:51:26;35.30;;;25.17;;
52041;SDS011;38052;45.944;13.624;2022-12-29T14:53:54;39.05;;;26.52;;
52041;SDS011;38052;45.944;13.624;2022-12-29T14:56:24;37.78;;;24.27;;
52041;SDS011;38052;45.944;13.624;2022-12-29T14:58:51;37.63;;;25.70;;
52041;SDS011;38052;45.944;13.624;2022-12-29T15:01:20;42.15;;;28.40;;
52041;SDS011;38052;45.944;13.624;2022-12-29T15:03:49;37.70;;;25.40;;
52041;SDS011;38052;45.944;13.624;2022-12-29T15:06:15;40.78;;;26.35;;
52041;SDS011;38052;45.944;13.624;2022-12-29T15:11:15;42.17;;;27.77;;
52041;SDS011;38052;45.944;13.624;2022-12-29T15:13:43;38.40;;;26.00;;
52041;SDS011;38052;45.944;13.624;2022-12-29T15:16:29;40.05;;;26.50;;
52041;SDS011;38052;45.944;13.624;2022-12-29T15:18:56;33.85;;;23.90;;
52041;SDS011;38052;45.944;13.624;2022-12-29T15:21:27;34.72;;;24.30;;
52041;SDS011;38052;45.944;13.624;2022-12-29T15:23:55;39.42;;;24.63;;
52041;SDS011;38052;45.944;13.624;2022-12-29T15:26:21;33.53;;;23.90;;
52041;SDS011;38052;45.944;13.624;2022-12-29T15:28:49;36.65;;;23.30;;
52041;SDS011;38052;45.944;13.624;2022-12-29T15:31:20;36.67;;;23.77;;
52041;SDS011;38052;45.944;13.624;2022-12-29T15:33:47;33.30;;;23.03;;
52041;SDS011;38052;45.944;13.624;2022-12-29T15:36:18;32.80;;;23.38;;
52041;SDS011;38052;45.944;13.624;2022-12-29T15:38:45;33.75;;;23.42;;
52041;SDS011;38052;45.944;13.624;2022-12-29T15:41:16;42.45;;;25.00;;
52041;SDS011;38052;45.944;13.624;2022-12-29T15:44:02;40.13;;;24.85;;
52041;SDS011;38052;45.944;13.624;2022-12-29T15:46:30;39.20;;;24.60;;
52041;SDS011;38052;45.944;13.624;2022-12-29T15:48:56;39.83;;;25.48;;
52041;SDS011;38052;45.944;13.624;2022-12-29T15:51:44;37.47;;;23.95;;
52041;SDS011;38052;45.944;13.624;2022-12-29T15:54:16;35.15;;;23.63;;
52041;SDS011;38052;45.944;13.624;2022-12-29T15:56:43;37.30;;;25.00;;
52041;SDS011;38052;45.944;13.624;2022-12-29T15:59:27;37.25;;;25.35;;
52041;SDS011;38052;45.944;13.624;2022-12-29T16:01:56;37.58;;;25.55;;
52041;SDS011;38052;45.944;13.624;2022-12-29T16:04:24;42.55;;;27.60;;
52041;SDS011;38052;45.944;13.624;2022-12-29T16:09:41;40.28;;;27.83;;
52041;SDS011;38052;45.944;13.624;2022-12-29T16:12:15;41.55;;;28.52;;
52041;SDS011;38052;45.944;13.624;2022-12-29T16:14:47;48.30;;;28.95;;
52041;SDS011;38052;45.944;13.624;2022-12-29T16:17:21;43.03;;;28.10;;
52041;SDS011;38052;45.944;13.624;2022-12-29T16:19:51;42.90;;;29.48;;
52041;SDS011;38052;45.944;13.624;2022-12-29T16:22:38;46.38;;;31.98;;
52041;SDS011;38052;45.944;13.624;2022-12-29T16:25:06;48.00;;;30.63;;
52041;SDS011;38052;45.944;13.624;2022-12-29T16:27:40;52.33;;;33.40;;
52041;SDS011;38052;45.944;13.624;2022-12-29T16:30:22;44.65;;;30.90;;
52041;SDS011;38052;45.944;13.624;2022-12-29T16:32:53;44.97;;;31.20;;
52041;SDS011;38052;45.944;13.624;2022-12-29T16:35:23;41.75;;;28.70;;
52041;SDS011;38052;45.944;13.624;2022-12-29T16:38:07;41.22;;;28.58;;
52041;SDS011;38052;45.944;13.624;2022-12-29T16:40:38;47.75;;;31.42;;